Bookmark and Share
Track history (hours):
 

Seaexpressii

Last reported at 2014-Apr-17 23:33 UTC. Time now 2014-Apr-18 00:15 UTC.
Position N 25°54' W 079°42'.

Length 37 m; draft 2 m.

Type: Ship. MMSI: 356449000.

NotesDate/timePositionNaut miles runAvg speedWind from/ knotsBaromVisibWave heightAir tempDewpointWater temp
2014-Apr-17 23:33N 25°54' W 079°42'7 6.8
2014-Apr-17 22:34N 25°58' W 079°49'7 7.1
2014-Apr-17 21:33N 26°01' W 079°56'9 8.8
2014-Apr-17 20:33N 26°05' W 080°04'3 3.4
2014-Apr-17 19:33N 26°04' W 080°08'0 0.0
2014-Apr-17 18:33N 26°04' W 080°08'0 0.0
2014-Apr-17 17:33N 26°04' W 080°08'0 0.0
2014-Apr-17 16:33N 26°04' W 080°08'0 0.0
2014-Apr-17 15:33N 26°04' W 080°08'0 0.0
2014-Apr-17 14:33N 26°04' W 080°08'0 0.0
2014-Apr-17 13:34N 26°04' W 080°08'0 0.0
2014-Apr-17 12:34N 26°04' W 080°08'0 0.0
2014-Apr-17 11:34N 26°04' W 080°08'5 5.1
2014-Apr-17 10:34N 26°05' W 080°02'7 7.4
2014-Apr-17 09:33N 26°05' W 079°54'7 6.5
2014-Apr-17 08:33N 26°04' W 079°47'7 6.6
2014-Apr-17 07:33N 26°03' W 079°39'7 7.0
2014-Apr-17 06:33N 26°03' W 079°32'  
2014-Apr-14 21:34N 26°04' W 079°44'10 9.5
2014-Apr-14 20:34N 26°04' W 079°54'10 9.7
2014-Apr-14 19:34N 26°05' W 080°05'3 3.1
2014-Apr-14 18:34N 26°04' W 080°08'0 0.0
2014-Apr-14 17:34N 26°04' W 080°08'0 0.0
2014-Apr-14 16:34N 26°04' W 080°08'0 0.0
2014-Apr-14 15:34N 26°04' W 080°08'0 0.0
2014-Apr-14 14:34N 26°04' W 080°08'0 0.0
2014-Apr-14 13:34N 26°04' W 080°08'0 0.0
2014-Apr-14 11:34N 26°04' W 080°08'0 0.0
2014-Apr-14 10:34N 26°04' W 080°08'0 0.0
2014-Apr-14 09:33N 26°04' W 080°08'0 0.0
2014-Apr-14 08:33N 26°04' W 080°08'0 0.0
2014-Apr-14 07:33N 26°04' W 080°08'0 0.0
2014-Apr-14 06:33N 26°04' W 080°08'0 0.0
2014-Apr-14 05:33N 26°04' W 080°08'0 0.1
2014-Apr-13 22:33N 26°04' W 080°07'7 7.3
2014-Apr-13 21:34N 26°01' W 079°60'1111.3
2014-Apr-13 20:33N 25°54' W 079°49'1111.2
2014-Apr-13 19:32N 25°49' W 079°39'9 0.7
2014-Apr-13 07:25N 25°56' W 079°45'6 6.0
2014-Apr-13 06:31N 25°58' W 079°50'6 5.9
2014-Apr-13 05:33N 26°01' W 079°56'6 6.1
2014-Apr-13 04:33N 26°04' W 080°02'5 5.3
2014-Apr-13 03:33N 26°04' W 080°07'0 0.4
2014-Apr-13 02:33N 26°04' W 080°08'0 0.0
2014-Apr-13 01:33N 26°04' W 080°08'0 0.0
2014-Apr-13 00:34N 26°04' W 080°08'0 0.0
2014-Apr-12 23:34N 26°04' W 080°08'0 0.0
2014-Apr-12 22:33N 26°04' W 080°08'0 0.0
2014-Apr-12 21:34N 26°04' W 080°08'0 0.0
2014-Apr-12 20:34N 26°04' W 080°08'0 0.0
2014-Apr-12 19:34N 26°04' W 080°08'6 5.9
2014-Apr-12 18:34N 26°03' W 080°01'1211.9
2014-Apr-12 17:33N 25°55' W 079°51'7 0.7
2014-Apr-12 07:13N 25°55' W 079°43'6 7.3
2014-Apr-12 06:25N 25°58' W 079°49'6 7.1
2014-Apr-12 05:34N 26°01' W 079°55'8 7.9
2014-Apr-12 04:34N 26°04' W 080°03'4 4.2
2014-Apr-12 03:33N 26°04' W 080°07'0 0.4
2014-Apr-12 02:33N 26°04' W 080°08'0 0.0
2014-Apr-12 01:33N 26°04' W 080°08'0 0.0
2014-Apr-12 00:33N 26°04' W 080°08'0 0.0
2014-Apr-11 23:33N 26°04' W 080°08'0 0.0
2014-Apr-11 22:33N 26°04' W 080°08'0 0.0
2014-Apr-11 21:33N 26°04' W 080°08'0 0.0
2014-Apr-11 20:33N 26°04' W 080°08'0 0.0
2014-Apr-11 19:34N 26°04' W 080°08'0 0.0
2014-Apr-11 18:34N 26°04' W 080°08'0 0.0
2014-Apr-11 17:33N 26°04' W 080°08'1 1.0
2014-Apr-11 16:33N 26°04' W 080°07'8 8.1
2014-Apr-11 15:34N 26°03' W 079°58'1110.6
2014-Apr-11 14:34N 26°00' W 079°47'1110.6
2014-Apr-11 13:33N 25°57' W 079°35'  
2014-Apr-09 01:07N 26°03' W 079°35'6 9.7
2014-Apr-09 00:33N 26°03' W 079°41'9 9.5
2014-Apr-08 23:33N 26°04' W 079°52'1010.1
2014-Apr-08 22:34N 26°05' W 080°03'5 4.6
2014-Apr-08 21:34N 26°04' W 080°08'0 0.0
2014-Apr-08 20:33N 26°04' W 080°08'0 0.0
2014-Apr-08 19:34N 26°04' W 080°08'0 0.0
2014-Apr-08 18:34N 26°04' W 080°08'0 0.0
2014-Apr-08 17:34N 26°04' W 080°08'0 0.0
2014-Apr-08 16:33N 26°04' W 080°08'0 0.0
2014-Apr-08 15:33N 26°04' W 080°08'0 0.0
2014-Apr-08 14:33N 26°04' W 080°08'2 1.7
2014-Apr-08 13:33N 26°05' W 080°07'9 8.9
2014-Apr-08 12:33N 26°03' W 079°57'10 9.9
2014-Apr-08 11:33N 26°00' W 079°46'10 9.5
2014-Apr-08 10:33N 25°58' W 079°36'10 9.9
2014-Apr-08 09:33N 25°55' W 079°26'  

Dump ship's entire track history

sailing weather and tide predictions

Seaexpressii — HO4619 — position and weather